Mill Creek, Pennsylvania
Current Conditions -  °F | °C
As of 4:53 PM on Tuesday 25 Nov 2014 (Local Time) from KAOO Reporting Station
Clear Clear  
Wind Chill: 39°   Ceiling: Unl
Heat Index: 43°   Visibility: 10mi
Dew Point: 28°   Wind: 7mph
Humidity: 56%   Direction: 250°WSW
Pressure: 30.02"   Gusts: NA
Location:  40.44°N, 77.93°W
Report Text: KAOO 252153Z AUTO 25006KT 10SM CLR 06/M02 A3002 RMK AO2 SLP175 T00611022
Loading
Personal Weather Stations






























Interactive Weather Map New forecast layout! Learn more

10-Day Weather Forecast

Advertisements
Track Severe Weather on mobile